createdAt,value
2023-02-26T00:02:31.106Z,4.43
2023-02-26T00:07:34.269Z,3.23
2023-02-26T00:12:37.783Z,2.40
2023-02-26T00:18:04.871Z,3.40
2023-02-26T00:23:09.252Z,4.20
2023-02-26T00:28:12.507Z,4.00
2023-02-26T05:34:31.123Z,4.07
2023-02-26T05:39:34.080Z,3.60
2023-02-26T05:44:37.013Z,4.20
2023-02-26T05:49:39.939Z,2.50
2023-02-26T05:54:42.884Z,2.57
2023-02-26T05:59:45.783Z,2.80
2023-02-26T06:04:49.093Z,3.00
2023-02-26T06:09:52.084Z,4.83
2023-02-26T06:14:55.023Z,2.77
2023-02-26T06:19:58.008Z,3.57
2023-02-26T06:25:00.962Z,3.10
2023-02-26T06:30:04.935Z,3.33
2023-02-26T06:35:08.285Z,4.00
2023-02-26T06:40:12.057Z,4.43
2023-02-26T06:45:15.195Z,2.90
2023-02-26T06:50:18.288Z,3.00
2023-02-26T06:55:27.008Z,2.80
2023-02-26T07:00:30.170Z,2.73
2023-02-26T07:05:33.333Z,4.07
2023-02-26T07:10:36.915Z,2.40
2023-02-26T07:15:39.856Z,3.90
2023-02-26T07:20:43.298Z,2.47
2023-02-26T07:25:48.788Z,2.87
2023-02-26T07:30:53.891Z,3.73
2023-02-26T07:35:56.898Z,4.57
2023-02-26T07:40:59.937Z,3.67
2023-02-26T07:46:03.400Z,5.77
2023-02-26T07:51:07.957Z,9.27
2023-02-26T07:56:10.903Z,5.37
2023-02-26T08:01:13.825Z,5.93
2023-02-26T08:06:16.839Z,3.30
2023-02-26T08:11:19.784Z,5.13
2023-02-26T08:16:22.842Z,5.10
2023-02-26T08:21:25.775Z,6.13
2023-02-26T08:26:28.940Z,4.47
2023-02-26T08:31:32.343Z,3.77
2023-02-26T08:36:35.339Z,3.03
2023-02-26T08:41:38.261Z,2.83
2023-02-26T08:46:41.248Z,2.43
2023-02-26T08:51:44.191Z,3.00
2023-02-26T08:56:47.165Z,4.70
2023-02-26T09:01:50.103Z,6.57
2023-02-26T09:06:53.611Z,3.43
2023-02-26T09:11:56.579Z,6.00
2023-02-26T09:16:59.557Z,2.20
2023-02-26T09:22:04.272Z,2.30
2023-02-26T09:27:08.138Z,3.77
2023-02-26T09:32:11.371Z,2.30
2023-02-26T09:37:14.385Z,3.90
2023-02-26T09:42:40.999Z,1.70
2023-02-26T09:47:50.976Z,3.87
2023-02-26T09:53:05.900Z,3.00
2023-02-26T09:58:28.432Z,2.30
2023-02-26T10:03:59.238Z,1.33
2023-02-26T10:09:32.561Z,1.83
2023-02-26T10:14:51.779Z,1.40
2023-02-26T10:19:59.264Z,1.97
2023-02-26T10:25:23.105Z,4.27
2023-02-26T10:30:38.159Z,2.03
2023-02-26T10:35:53.196Z,2.47
2023-02-26T10:41:13.174Z,2.77
2023-02-26T10:46:42.941Z,4.70
2023-02-26T10:51:47.129Z,2.47
2023-02-26T10:56:50.196Z,1.97
2023-02-26T11:01:53.562Z,1.30
2023-02-26T11:07:02.156Z,1.53
2023-02-26T11:12:14.778Z,2.17
2023-02-26T11:17:27.965Z,1.70
2023-02-26T11:22:33.446Z,2.23
2023-02-26T11:27:38.038Z,2.70
2023-02-26T11:32:41.015Z,5.53
2023-02-26T11:37:49.930Z,3.43
2023-02-26T11:42:59.798Z,1.87
2023-02-26T11:48:08.214Z,2.33
2023-02-26T11:53:27.153Z,2.10
2023-02-26T11:58:35.317Z,2.50
2023-02-26T12:03:42.559Z,2.83
2023-02-26T12:08:46.162Z,3.10
2023-02-26T12:14:17.857Z,2.30
2023-02-26T12:19:42.687Z,5.37
2023-02-26T12:25:01.766Z,3.00
2023-02-26T12:30:22.455Z,2.43
2023-02-26T12:35:53.150Z,8.27
2023-02-26T12:41:20.159Z,4.77
2023-02-26T12:46:40.778Z,18.07
2023-02-26T12:51:58.170Z,3.73
2023-02-26T12:57:14.763Z,6.93
2023-02-26T13:02:37.885Z,4.37
2023-02-26T13:07:49.985Z,2.00
2023-02-26T13:13:17.179Z,2.30
2023-02-26T13:19:04.636Z,2.20
2023-02-26T13:24:23.197Z,2.73
2023-02-26T13:29:51.778Z,5.30
2023-02-26T13:35:01.431Z,3.13
2023-02-26T13:40:30.114Z,3.90
2023-02-26T13:45:47.243Z,3.53
2023-02-26T13:51:33.715Z,4.33
2023-02-26T13:56:36.698Z,3.90
2023-02-26T14:02:01.878Z,8.87
2023-02-26T14:07:16.141Z,4.50
2023-02-26T14:12:36.373Z,3.17
2023-02-26T14:17:41.710Z,6.70
2023-02-26T14:22:48.650Z,7.13
2023-02-26T14:27:51.571Z,3.40
2023-02-26T14:32:57.226Z,6.50
2023-02-26T14:38:08.903Z,3.07
2023-02-26T14:43:36.631Z,3.57
2023-02-26T14:48:40.048Z,3.00
2023-02-26T14:53:42.994Z,4.50
2023-02-26T14:59:06.246Z,3.93
2023-02-26T15:04:39.843Z,5.87
2023-02-26T15:10:06.572Z,4.37
2023-02-26T15:15:20.698Z,2.97
2023-02-26T15:20:27.285Z,5.50
2023-02-26T15:25:34.035Z,4.20
2023-02-26T15:30:37.199Z,6.33
2023-02-26T15:35:40.626Z,2.83
2023-02-26T15:40:44.005Z,2.77
2023-02-26T15:45:50.375Z,6.33
2023-02-26T15:51:02.054Z,3.63
2023-02-26T15:56:12.682Z,4.93
2023-02-26T16:01:18.477Z,4.13
2023-02-26T16:06:28.533Z,4.27
2023-02-26T16:11:39.793Z,9.33
2023-02-26T16:16:51.048Z,4.97
2023-02-26T16:21:55.348Z,5.40
2023-02-26T16:27:06.956Z,4.63
2023-02-26T16:32:12.164Z,6.50
2023-02-26T16:37:33.999Z,6.80
2023-02-26T16:42:55.101Z,6.53
2023-02-26T16:47:59.794Z,6.37
2023-02-26T16:53:13.527Z,4.67
2023-02-26T16:58:16.669Z,4.93
2023-02-26T17:03:23.613Z,4.70
2023-02-26T17:08:32.004Z,7.63
2023-02-26T17:13:37.499Z,9.30
2023-02-26T17:18:40.555Z,12.00
2023-02-26T17:23:43.926Z,8.57
2023-02-26T17:28:48.463Z,12.27
2023-02-26T17:33:52.449Z,7.53
2023-02-26T17:38:55.532Z,12.27
2023-02-26T17:43:58.356Z,6.73
2023-02-26T17:49:02.489Z,4.87
2023-02-26T17:54:05.517Z,8.70
2023-02-26T17:59:12.974Z,5.67
2023-02-26T18:04:16.918Z,5.80
2023-02-26T18:09:19.998Z,4.77
2023-02-26T18:14:23.073Z,4.03
2023-02-26T18:19:25.930Z,7.97
2023-02-26T18:24:28.803Z,5.83
2023-02-26T18:29:31.674Z,3.90
2023-02-26T18:34:34.552Z,9.27
2023-02-26T18:39:38.151Z,13.43
2023-02-26T18:44:40.981Z,7.60
2023-02-26T18:49:43.985Z,12.00
2023-02-26T18:54:48.318Z,10.23
2023-02-26T18:59:51.349Z,8.73
2023-02-26T19:04:54.364Z,13.07
2023-02-26T19:09:57.208Z,10.30
2023-02-26T19:15:00.027Z,10.03
2023-02-26T19:20:03.079Z,10.83
2023-02-26T19:25:06.560Z,10.80
2023-02-26T19:30:10.400Z,9.37
2023-02-26T19:35:13.377Z,8.90
2023-02-26T19:40:16.887Z,9.40
2023-02-26T19:45:20.112Z,10.80
2023-02-26T19:50:25.523Z,7.97
2023-02-26T19:55:28.438Z,13.33
2023-02-26T20:00:31.539Z,7.07
2023-02-26T20:05:36.701Z,10.33
2023-02-26T20:10:40.722Z,10.50
2023-02-26T20:15:44.314Z,15.20
2023-02-26T20:20:47.395Z,14.77
2023-02-26T20:25:50.547Z,8.00
2023-02-26T20:30:54.157Z,13.67
2023-02-26T20:35:57.162Z,12.77
2023-02-26T20:41:00.179Z,11.50
2023-02-26T20:46:03.403Z,16.03
2023-02-26T20:51:07.500Z,15.57
2023-02-26T20:56:10.430Z,13.17
2023-02-26T21:01:13.828Z,17.77
2023-02-26T21:06:16.835Z,17.27
2023-02-26T21:11:19.829Z,11.13
2023-02-26T21:16:22.832Z,10.97
2023-02-26T21:21:25.846Z,8.43
2023-02-26T21:26:28.673Z,11.77
2023-02-26T21:31:31.607Z,6.83
2023-02-26T21:36:34.445Z,11.97
2023-02-26T21:41:37.355Z,7.83
2023-02-26T21:46:40.264Z,8.80
2023-02-26T21:51:43.176Z,10.30
2023-02-26T21:56:46.120Z,5.13
2023-02-26T22:01:49.278Z,8.00
2023-02-26T22:06:52.474Z,11.80
2023-02-26T22:11:55.372Z,13.73
2023-02-26T22:16:58.285Z,6.83
2023-02-26T22:22:01.173Z,9.90
2023-02-26T22:27:04.172Z,10.40
2023-02-26T22:32:07.300Z,9.90
2023-02-26T22:37:10.203Z,8.57
2023-02-26T22:42:13.101Z,5.70
2023-02-26T22:47:15.993Z,5.57
2023-02-26T22:52:18.895Z,6.03
2023-02-26T22:57:21.863Z,5.77
2023-02-26T23:02:25.583Z,12.47
2023-02-26T23:07:28.792Z,8.57
2023-02-26T23:12:31.792Z,6.33
2023-02-26T23:17:34.875Z,5.07
2023-02-26T23:22:38.718Z,3.70
2023-02-26T23:27:41.771Z,3.27
2023-02-26T23:32:44.791Z,6.17
2023-02-26T23:37:47.660Z,3.50
2023-02-26T23:42:50.575Z,4.43
2023-02-26T23:47:53.454Z,4.63
2023-02-26T23:52:56.356Z,9.23
2023-02-26T23:57:59.248Z,7.23
